Time;durP1;ratioP1;P1;durP2;ratioP2;P2;SDS_P1;SDS_P2;PMS_P1;PMS_P2;Temp;Humidity;BMP_temperature;BMP_pressure;BME280_temperature;BME280_humidity;BME280_pressure;Samples;Min_cycle;Max_cycle;Signal;HPM_P1;HPM_P2
2022/03/22 00:00:17;;;;;;;;;;;;;;;;;;5094990;28;20343;-67
2022/03/22 00:02:43;;;;;;;;;;;;;;;;;;5093852;28;19918;-68
2022/03/22 00:05:09;;;;;;;;;;;;;;;;;;5094485;28;20276;-68
2022/03/22 00:07:35;;;;;;;;;;;;;;;;;;5094255;28;19904;-68
2022/03/22 00:10:01;;;;;;;;;;;;;;;;;;5093853;28;19932;-68
2022/03/22 00:12:28;;;;;;;;;;;;;;;;;;5076032;28;19954;-67
2022/03/22 00:14:54;;;;;;;;;;;;;;;;;;5076047;28;19947;-67
2022/03/22 00:17:21;;;;;;;;;;;;;;;;;;5093890;28;19950;-67
2022/03/22 00:19:47;;;;;;;;;;;;;;;;;;5094296;28;19940;-67
2022/03/22 00:22:13;;;;;;;;;;;;;;;;;;5093998;28;19908;-67
2022/03/22 00:24:39;;;;;;;;;;;;;;;;;;5093671;28;19948;-67
2022/03/22 00:27:05;;;;;;;;;;;;;;;;;;5093987;28;19927;-67
2022/03/22 00:29:31;;;;;;;;;;;;;;;;;;5093993;28;19907;-67
2022/03/22 00:31:57;;;;;;;;;;;;;;;;;;5093839;28;19904;-67
2022/03/22 00:34:24;;;;;;;;;;;;;;;;;;5093959;28;19914;-68
2022/03/22 00:36:50;;;;;;;;;;;;;;;;;;5093923;28;19911;-68
2022/03/22 00:39:16;;;;;;;;;;;;;;;;;;5075307;28;19911;-68
2022/03/22 00:41:42;;;;;;;;;;;;;;;;;;5093536;28;19904;-68
2022/03/22 00:44:08;;;;;;;;;;;;;;;;;;5093952;28;20057;-68
2022/03/22 00:46:34;;;;;;;;;;;;;;;;;;5093549;28;19903;-68
2022/03/22 00:49:01;;;;;;;;;;;;;;;;;;5094233;28;19915;-67
2022/03/22 00:51:27;;;;;;;;;;;;;;;;;;5094357;28;20340;-68
2022/03/22 00:53:53;;;;;;;;;;;;;;;;;;5093302;28;19908;-68
2022/03/22 00:56:19;;;;;;;;;;;;;;;;;;5093721;28;19970;-67
2022/03/22 00:58:45;;;;;;;;;;;;;;;;;;5093633;28;20276;-67
2022/03/22 01:01:11;;;;;;;;;;;;;;;;;;5093220;28;19908;-69
2022/03/22 01:03:37;;;;;;;;;;;;;;;;;;5076051;28;20009;-68
2022/03/22 01:06:04;;;;;;;;;;;;;;;;;;5079206;28;19904;-68
2022/03/22 01:08:30;;;;;;;;;;;;;;;;;;5097717;28;19957;-67
2022/03/22 01:10:56;;;;;;;;;;;;;;;;;;5079577;28;19904;-67
2022/03/22 01:13:22;;;;;;;;;;;;;;;;;;5097291;28;19911;-67
2022/03/22 01:15:49;;;;;;;;;;;;;;;;;;5097745;28;20264;-68
2022/03/22 01:18:15;;;;;;;;;;;;;;;;;;5097536;28;20045;-68
2022/03/22 01:20:41;;;;;;;;;;;;;;;;;;5097145;28;19915;-68
2022/03/22 01:23:10;;;;;;;;;;;;;;;;;;5097355;28;19911;-68
2022/03/22 01:25:36;;;;;;;;;;;;;;;;;;5079243;28;19904;-68
2022/03/22 01:28:02;;;;;;;;;;;;;;;;;;5096918;28;20352;-68
2022/03/22 01:30:28;;;;;;;;;;;;;;;;;;5097578;28;19970;-67
2022/03/22 01:32:55;;;;;;;;;;;;;;;;;;5097276;28;19908;-68
2022/03/22 01:35:20;;;;;;;;;;;;;;;;;;5096893;28;19908;-68
2022/03/22 01:37:47;;;;;;;;;;;;;;;;;;5097280;28;19911;-68
2022/03/22 01:40:13;;;;;;;;;;;;;;;;;;5097264;28;19904;-68
2022/03/22 01:42:39;;;;;;;;;;;;;;;;;;5096372;28;19938;-68
2022/03/22 01:45:07;;;;;;;;;;;;;;;;;;5097583;28;20015;-69
2022/03/22 01:47:35;;;;;;;;;;;;;;;;;;5097070;28;19904;-68
2022/03/22 01:50:01;;;;;;;;;;;;;;;;;;5096591;28;19908;-68
2022/03/22 01:52:27;;;;;;;;;;;;;;;;;;5096912;28;19962;-68
2022/03/22 01:54:55;;;;;;;;;;;;;;;;;;5097371;28;19908;-68
2022/03/22 01:57:21;;;;;;;;;;;;;;;;;;5096487;28;19908;-68
2022/03/22 01:59:47;;;;;;;;;;;;;;;;;;5096761;28;20272;-67
2022/03/22 02:07:42;;;;;;;;;;;;;;;;;;5096764;28;19911;-67
2022/03/22 02:10:08;;;;;;;;;;;;;;;;;;5096154;28;19904;-67
2022/03/22 02:12:34;;;;;;;;;;;;;;;;;;5096487;28;20356;-67
2022/03/22 02:15:01;;;;;;;;;;;;;;;;;;5095957;28;19908;-67
2022/03/22 02:17:27;;;;;;;;;;;;;;;;;;5096047;28;19904;-67
2022/03/22 02:19:53;;;;;;;;;;;;;;;;;;5096315;28;19910;-67
2022/03/22 02:22:19;;;;;;;;;;;;;;;;;;5096333;28;19908;-67
2022/03/22 02:24:45;;;;;;;;;;;;;;;;;;5077652;28;20331;-67
2022/03/22 02:27:11;;;;;;;;;;;;;;;;;;5096213;28;19908;-67
2022/03/22 02:29:37;;;;;;;;;;;;;;;;;;5096135;28;19905;-67
2022/03/22 02:32:03;;;;;;;;;;;;;;;;;;5095709;28;19935;-68
2022/03/22 02:34:29;;;;;;;;;;;;;;;;;;5096466;28;19908;-67
2022/03/22 02:36:55;;;;;;;;;;;;;;;;;;5077833;28;19904;-67
2022/03/22 02:39:21;;;;;;;;;;;;;;;;;;5095625;28;19908;-67
2022/03/22 02:41:48;;;;;;;;;;;;;;;;;;5095638;28;19915;-67
2022/03/22 02:44:14;;;;;;;;;;;;;;;;;;5095959;28;19911;-68
2022/03/22 02:46:40;;;;;;;;;;;;;;;;;;5095391;28;19908;-68
2022/03/22 02:49:07;;;;;;;;;;;;;;;;;;5095877;28;20036;-67
2022/03/22 02:51:33;;;;;;;;;;;;;;;;;;5095307;28;19904;-68
2022/03/22 02:53:59;;;;;;;;;;;;;;;;;;5095660;28;19904;-67
2022/03/22 02:56:25;;;;;;;;;;;;;;;;;;5095660;28;19911;-67
2022/03/22 02:58:51;;;;;;;;;;;;;;;;;;5095249;28;20358;-67
2022/03/22 03:01:17;;;;;;;;;;;;;;;;;;5095560;28;19904;-67
2022/03/22 03:03:43;;;;;;;;;;;;;;;;;;5095439;28;19937;-67
2022/03/22 03:06:09;;;;;;;;;;;;;;;;;;5095381;28;20353;-67
2022/03/22 03:08:36;;;;;;;;;;;;;;;;;;5095591;28;19966;-67
2022/03/22 03:11:02;;;;;;;;;;;;;;;;;;5095805;28;19947;-67
2022/03/22 03:14:38;;;;;;;;;;;;;;;;;;5094905;28;20284;-67
2022/03/22 03:16:13;;;;;;;;;;;;;;;;;;5095017;28;19961;-67
2022/03/22 03:18:39;;;;;;;;;;;;;;;;;;5095417;28;19904;-67
2022/03/22 03:21:05;;;;;;;;;;;;;;;;;;5094741;28;20033;-67
2022/03/22 03:23:32;;;;;;;;;;;;;;;;;;5076725;28;19919;-67
2022/03/22 03:25:58;;;;;;;;;;;;;;;;;;5094604;28;20276;-68
2022/03/22 03:28:24;;;;;;;;;;;;;;;;;;5094257;28;20386;-67
2022/03/22 03:30:50;;;;;;;;;;;;;;;;;;5077139;28;19908;-67
2022/03/22 03:33:16;;;;;;;;;;;;;;;;;;5094853;28;20276;-68
2022/03/22 03:35:42;;;;;;;;;;;;;;;;;;5094454;28;19904;-68
2022/03/22 03:38:08;;;;;;;;;;;;;;;;;;5094877;28;19942;-68
2022/03/22 03:43:19;;;;;;;;;;;;;;;;;;5094501;28;20279;-67
2022/03/22 03:48:29;;;;;;;;;;;;;;;;;;5094499;28;19910;-68
2022/03/22 03:50:55;;;;;;;;;;;;;;;;;;5094598;28;20270;-67
2022/03/22 03:53:23;;;;;;;;;;;;;;;;;;5094592;28;19904;-67
2022/03/22 03:55:49;;;;;;;;;;;;;;;;;;5094185;28;19957;-68
2022/03/22 03:58:15;;;;;;;;;;;;;;;;;;5094417;28;19904;-67
2022/03/22 04:00:41;;;;;;;;;;;;;;;;;;5094753;28;19911;-68
2022/03/22 04:03:07;;;;;;;;;;;;;;;;;;5093844;28;19912;-67
2022/03/22 04:05:33;;;;;;;;;;;;;;;;;;5094526;28;19910;-67
2022/03/22 04:07:59;;;;;;;;;;;;;;;;;;5094303;28;20322;-66
2022/03/22 04:10:26;;;;;;;;;;;;;;;;;;5093857;28;19904;-66
2022/03/22 04:12:52;;;;;;;;;;;;;;;;;;5094267;28;19908;-66
2022/03/22 04:15:18;;;;;;;;;;;;;;;;;;5094275;28;20002;-66
2022/03/22 04:17:44;;;;;;;;;;;;;;;;;;5093860;28;19911;-67
2022/03/22 04:20:10;;;;;;;;;;;;;;;;;;5094171;28;19904;-66
2022/03/22 04:22:36;;;;;;;;;;;;;;;;;;5093953;28;19908;-67
2022/03/22 04:25:02;;;;;;;;;;;;;;;;;;5075507;28;19904;-67
2022/03/22 04:32:57;;;;;;;;;;;;;;;;;;5094099;28;20331;-67
2022/03/22 04:35:27;;;;;;;;;;;;;;;;;;5075884;28;19939;-67
2022/03/22 04:37:53;;;;;;;;;;;;;;;;;;5093369;28;19904;-67
2022/03/22 04:40:19;;;;;;;;;;;;;;;;;;5075744;28;20362;-67
2022/03/22 04:42:45;;;;;;;;;;;;;;;;;;5093766;28;19927;-67
2022/03/22 04:45:11;;;;;;;;;;;;;;;;;;5075351;28;19979;-67
2022/03/22 04:47:37;;;;;;;;;;;;;;;;;;5093864;28;20008;-67
2022/03/22 04:50:03;;;;;;;;;;;;;;;;;;5093813;28;20353;-67
2022/03/22 04:57:58;;;;;;;;;;;;;;;;;;5093961;28;20268;-67
2022/03/22 05:00:24;;;;;;;;;;;;;;;;;;5093829;28;19904;-67
2022/03/22 05:02:50;;;;;;;;;;;;;;;;;;5093580;28;19920;-67
2022/03/22 05:06:25;;;;;;;;;;;;;;;;;;5093295;28;19911;-67
2022/03/22 05:08:03;;;;;;;;;;;;;;;;;;5093452;28;19904;-67
2022/03/22 05:10:29;;;;;;;;;;;;;;;;;;5093563;28;19958;-67
2022/03/22 05:12:55;;;;;;;;;;;;;;;;;;5093174;28;19908;-67
2022/03/22 05:15:21;;;;;;;;;;;;;;;;;;5093571;28;19943;-67
2022/03/22 05:17:48;;;;;;;;;;;;;;;;;;5075391;28;19904;-67
2022/03/22 05:20:15;;;;;;;;;;;;;;;;;;5091327;28;19911;-70
2022/03/22 05:22:42;;;;;;;;;;;;;;;;;;5093399;28;19955;-69
2022/03/22 05:25:09;;;;;;;;;;;;;;;;;;5091251;28;19904;-66
2022/03/22 05:27:36;;;;;;;;;;;;;;;;;;5093057;28;19904;-66
2022/03/22 05:30:02;;;;;;;;;;;;;;;;;;5093353;28;19949;-66
2022/03/22 05:32:28;;;;;;;;;;;;;;;;;;5093464;28;20348;-66
2022/03/22 05:34:54;;;;;;;;;;;;;;;;;;5092931;28;19911;-66
2022/03/22 05:37:22;;;;;;;;;;;;;;;;;;5093332;28;19904;-66
2022/03/22 05:39:48;;;;;;;;;;;;;;;;;;5075171;28;19946;-66
2022/03/22 05:42:14;;;;;;;;;;;;;;;;;;5092567;28;20307;-67
2022/03/22 05:44:40;;;;;;;;;;;;;;;;;;5075196;28;19912;-67
2022/03/22 05:47:06;;;;;;;;;;;;;;;;;;5093215;28;20268;-66
2022/03/22 05:49:38;;;;;;;;;;;;;;;;;;5093201;28;19947;-66
2022/03/22 05:52:04;;;;;;;;;;;;;;;;;;5096965;28;19904;-67
2022/03/22 05:54:30;;;;;;;;;;;;;;;;;;5093054;28;19908;-67
2022/03/22 05:56:56;;;;;;;;;;;;;;;;;;5096712;28;19904;-67
2022/03/22 05:59:22;;;;;;;;;;;;;;;;;;5096588;28;19958;-67
2022/03/22 06:01:48;;;;;;;;;;;;;;;;;;5096075;28;19949;-67
2022/03/22 06:04:14;;;;;;;;;;;;;;;;;;5074100;28;19995;-66
2022/03/22 06:06:40;;;;;;;;;;;;;;;;;;5095517;28;20113;-66
2022/03/22 06:09:06;;;;;;;;;;;;;;;;;;5094482;28;19946;-66
2022/03/22 06:11:35;;;;;;;;;;;;;;;;;;5096104;28;19932;-66
2022/03/22 06:14:01;;;;;;;;;;;;;;;;;;5094905;28;19953;-67
2022/03/22 06:16:27;;;;;;;;;;;;;;;;;;5077480;28;20322;-68
2022/03/22 06:18:54;;;;;;;;;;;;;;;;;;5076080;28;20007;-66
2022/03/22 06:21:20;;;;;;;;;;;;;;;;;;5073345;28;19927;-66
2022/03/22 06:23:47;;;;;;;;;;;;;;;;;;5082113;28;19916;-69
2022/03/22 06:26:13;;;;;;;;;;;;;;;;;;5094554;28;19904;-70
2022/03/22 06:28:39;;;;;;;;;;;;;;;;;;5093703;28;20364;-69
2022/03/22 06:31:05;;;;;;;;;;;;;;;;;;5092860;28;19904;-68
2022/03/22 06:33:31;;;;;;;;;;;;;;;;;;5083117;28;19918;-69
2022/03/22 06:35:57;;;;;;;;;;;;;;;;;;5099706;28;19904;-69
2022/03/22 06:38:23;;;;;;;;;;;;;;;;;;5101126;28;19923;-69
2022/03/22 06:40:50;;;;;;;;;;;;;;;;;;5114526;28;19904;-68
2022/03/22 06:43:16;;;;;;;;;;;;;;;;;;5109436;28;19915;-68
2022/03/22 06:45:42;;;;;;;;;;;;;;;;;;5093996;28;19904;-69
2022/03/22 06:48:08;;;;;;;;;;;;;;;;;;5094675;28;19962;-69
2022/03/22 06:50:34;;;;;;;;;;;;;;;;;;5092773;28;19908;-69
2022/03/22 06:53:00;;;;;;;;;;;;;;;;;;5093544;28;19911;-69
2022/03/22 06:55:26;;;;;;;;;;;;;;;;;;5093948;28;20368;-69
2022/03/22 06:57:52;;;;;;;;;;;;;;;;;;5092332;28;19950;-69
2022/03/22 07:00:19;;;;;;;;;;;;;;;;;;5092009;28;20318;-70
2022/03/22 07:02:45;;;;;;;;;;;;;;;;;;5075199;28;20360;-68
2022/03/22 07:05:11;;;;;;;;;;;;;;;;;;5091579;28;19948;-70
2022/03/22 07:07:38;;;;;;;;;;;;;;;;;;5092756;28;20265;-70
2022/03/22 07:10:04;;;;;;;;;;;;;;;;;;5080010;28;19975;-68
2022/03/22 07:12:30;;;;;;;;;;;;;;;;;;5071846;28;19912;-71
2022/03/22 07:15:05;;;;;;;;;;;;;;;;;;5072159;28;20284;-70
2022/03/22 07:17:31;;;;;;;;;;;;;;;;;;5053914;28;19931;-71
2022/03/22 07:19:57;;;;;;;;;;;;;;;;;;5067914;28;19912;-71
2022/03/22 07:22:24;;;;;;;;;;;;;;;;;;5077578;28;19943;-72
2022/03/22 07:24:51;;;;;;;;;;;;;;;;;;5074703;28;19908;-73
2022/03/22 07:27:17;;;;;;;;;;;;;;;;;;5093455;28;20030;-71
2022/03/22 07:29:43;;;;;;;;;;;;;;;;;;5093844;28;19931;-69
2022/03/22 07:32:08;;;;;;;;;;;;;;;;;;5088475;28;20253;-71
2022/03/22 07:34:36;;;;;;;;;;;;;;;;;;5071894;28;20006;-72
2022/03/22 07:37:02;;;;;;;;;;;;;;;;;;5071693;28;19926;-73
2022/03/22 07:39:29;;;;;;;;;;;;;;;;;;5072263;28;20356;-73
2022/03/22 07:41:55;;;;;;;;;;;;;;;;;;5054919;28;20296;-74
2022/03/22 07:44:21;;;;;;;;;;;;;;;;;;5055050;28;20279;-71
2022/03/22 07:46:47;;;;;;;;;;;;;;;;;;5058929;28;20276;-70
2022/03/22 07:54:43;;;;;;;;;;;;;;;;;;5113914;28;19930;-71
2022/03/22 07:57:09;;;;;;;;;;;;;;;;;;5113941;28;20445;-69
2022/03/22 07:59:35;;;;;;;;;;;;;;;;;;5113766;28;19904;-71
2022/03/22 08:02:01;;;;;;;;;;;;;;;;;;5113079;28;20351;-71
2022/03/22 08:04:27;;;;;;;;;;;;;;;;;;5094462;28;19933;-71
2022/03/22 08:06:53;;;;;;;;;;;;;;;;;;5095200;28;19904;-72
2022/03/22 08:09:19;;;;;;;;;;;;;;;;;;5113446;28;20025;-72
2022/03/22 08:11:45;;;;;;;;;;;;;;;;;;5113481;28;20021;-71
2022/03/22 08:14:12;;;;;;;;;;;;;;;;;;5112889;28;19904;-72
2022/03/22 08:16:38;;;;;;;;;;;;;;;;;;5113757;28;19956;-70
2022/03/22 08:19:07;;;;;;;;;;;;;;;;;;5095164;28;20376;-70
2022/03/22 08:21:33;;;;;;;;;;;;;;;;;;5112994;28;19904;-73
2022/03/22 08:23:59;;;;;;;;;;;;;;;;;;5113205;28;19912;-72
2022/03/22 08:26:25;;;;;;;;;;;;;;;;;;5113360;28;19947;-70
2022/03/22 08:28:51;;;;;;;;;;;;;;;;;;5113608;28;19907;-71
2022/03/22 08:31:17;;;;;;;;;;;;;;;;;;5094950;28;19952;-71
2022/03/22 08:33:43;;;;;;;;;;;;;;;;;;5113336;28;19904;-71
2022/03/22 08:36:09;;;;;;;;;;;;;;;;;;5113087;28;20271;-73
2022/03/22 08:38:35;;;;;;;;;;;;;;;;;;5112963;28;19908;-72
2022/03/22 08:41:01;;;;;;;;;;;;;;;;;;5113325;28;19950;-71
2022/03/22 08:43:27;;;;;;;;;;;;;;;;;;5112866;28;20429;-69
2022/03/22 08:45:53;;;;;;;;;;;;;;;;;;5113452;28;19911;-72
2022/03/22 08:48:19;;;;;;;;;;;;;;;;;;5113091;28;19904;-71
2022/03/22 08:50:45;;;;;;;;;;;;;;;;;;5112965;28;20001;-70
2022/03/22 08:54:54;;;;;;;;;;;;;;;;;;5110624;27;19920;-73
2022/03/22 08:57:20;;;;;;;;;;;;;;;;;;5110678;28;20356;-73
2022/03/22 08:59:47;;;;;;;;;;;;;;;;;;5110386;28;20028;-74
2022/03/22 09:02:13;;;;;;;;;;;;;;;;;;5107942;28;20011;-73
2022/03/22 09:07:23;;;;;;;;;;;;;;;;;;5109140;28;19914;-70
2022/03/22 09:09:49;;;;;;;;;;;;;;;;;;5108762;28;19908;-72
2022/03/22 09:12:15;;;;;;;;;;;;;;;;;;5109639;28;19915;-72
2022/03/22 09:14:41;;;;;;;;;;;;;;;;;;5110302;28;20007;-72
2022/03/22 09:17:07;;;;;;;;;;;;;;;;;;5109043;28;20287;-72
2022/03/22 09:19:36;;;;;;;;;;;;;;;;;;5110030;28;19908;-71
2022/03/22 09:25:23;;;;;;;;;;;;;;;;;;5109605;27;19916;-71
2022/03/22 09:27:49;;;;;;;;;;;;;;;;;;5109207;28;19916;-71
2022/03/22 09:30:15;;;;;;;;;;;;;;;;;;5108613;28;19908;-71
2022/03/22 09:32:42;;;;;;;;;;;;;;;;;;5108499;28;19919;-70
2022/03/22 09:35:10;;;;;;;;;;;;;;;;;;5109345;28;19943;-73
2022/03/22 09:37:36;;;;;;;;;;;;;;;;;;5109659;28;19908;-71
2022/03/22 09:42:32;;;;;;;;;;;;;;;;;;5042108;27;2512106;-72
2022/03/22 09:45:00;;;;;;;;;;;;;;;;;;5115143;28;19912;-71
2022/03/22 09:47:26;;;;;;;;;;;;;;;;;;5110481;28;19912;-72
2022/03/22 09:49:52;;;;;;;;;;;;;;;;;;5110714;28;19915;-72
2022/03/22 09:52:18;;;;;;;;;;;;;;;;;;5092404;28;19915;-71
2022/03/22 09:54:44;;;;;;;;;;;;;;;;;;5106600;28;19911;-71
2022/03/22 09:57:10;;;;;;;;;;;;;;;;;;5111606;28;20006;-70
2022/03/22 09:59:36;;;;;;;;;;;;;;;;;;5111345;28;19933;-69
2022/03/22 10:02:02;;;;;;;;;;;;;;;;;;5123603;28;19923;-69
2022/03/22 10:04:29;;;;;;;;;;;;;;;;;;5128046;28;19907;-71
2022/03/22 10:06:57;;;;;;;;;;;;;;;;;;5109032;28;19908;-69
2022/03/22 10:09:23;;;;;;;;;;;;;;;;;;5109630;28;19999;-68
2022/03/22 10:11:49;;;;;;;;;;;;;;;;;;5109698;28;19912;-70
2022/03/22 10:14:15;;;;;;;;;;;;;;;;;;5109926;28;19919;-69
2022/03/22 10:16:42;;;;;;;;;;;;;;;;;;5109750;28;19908;-69
2022/03/22 10:19:08;;;;;;;;;;;;;;;;;;5110170;28;19934;-69
2022/03/22 10:26:23;;;;;;;;;;;;;;;;;;5131144;27;19926;-70
2022/03/22 10:28:49;;;;;;;;;;;;;;;;;;5129996;28;20000;-70
2022/03/22 10:31:16;;;;;;;;;;;;;;;;;;5129507;28;19933;-70
2022/03/22 10:34:49;;;;;;;;;;;;;;;;;;5090199;27;19916;-71
2022/03/22 10:37:15;;;;;;;;;;;;;;;;;;5089808;28;19912;-69
2022/03/22 10:39:45;;;;;;;;;;;;;;;;;;5089018;28;19932;-71
2022/03/22 10:44:36;;;;;;;;;;;;;;;;;;5086097;27;19917;-70
2022/03/22 10:47:02;;;;;;;;;;;;;;;;;;5089661;28;19965;-70
2022/03/22 10:49:28;;;;;;;;;;;;;;;;;;5088843;28;19916;-71
2022/03/22 10:51:56;;;;;;;;;;;;;;;;;;5088833;28;19908;-70
2022/03/22 10:54:22;;;;;;;;;;;;;;;;;;5089903;28;19919;-68
2022/03/22 11:01:19;;;;;;;;;;;;;;;;;;5110845;27;20299;-69
2022/03/22 11:05:28;;;;;;;;;;;;;;;;;;5110562;27;19916;-69
2022/03/22 11:08:53;;;;;;;;;;;;;;;;;;5123211;27;19923;-70
2022/03/22 11:11:20;;;;;;;;;;;;;;;;;;5088843;28;19999;-69
2022/03/22 11:16:51;;;;;;;;;;;;;;;;;;5090490;28;19916;-69
2022/03/22 11:25:36;;;;;;;;;;;;;;;;;;5109433;27;19912;-69
2022/03/22 11:28:03;;;;;;;;;;;;;;;;;;5109977;28;19916;-67
2022/03/22 11:37:16;;;;;;;;;;;;;;;;;;5090613;27;19913;-68
2022/03/22 11:42:21;;;;;;;;;;;;;;;;;;5087503;28;19919;-68
2022/03/22 11:44:47;;;;;;;;;;;;;;;;;;5090706;28;19983;-67
2022/03/22 11:50:47;;;;;;;;;;;;;;;;;;5090365;28;19916;-69
2022/03/22 11:53:13;;;;;;;;;;;;;;;;;;5090100;28;19966;-70
2022/03/22 11:55:39;;;;;;;;;;;;;;;;;;5088319;28;20369;-69
2022/03/22 12:02:22;;;;;;;;;;;;;;;;;;5110168;27;19915;-71
2022/03/22 12:05:07;;;;;;;;;;;;;;;;;;5110006;27;19916;-68
2022/03/22 12:07:34;;;;;;;;;;;;;;;;;;5110262;28;19966;-68
2022/03/22 12:10:09;;;;;;;;;;;;;;;;;;5193766;27;19914;-69
2022/03/22 12:12:35;;;;;;;;;;;;;;;;;;5174565;27;19957;-69
2022/03/22 12:16:36;;;;;;;;;;;;;;;;;;5089503;27;19916;-69
2022/03/22 12:19:01;;;;;;;;;;;;;;;;;;5076086;28;19913;-69
2022/03/22 12:22:33;;;;;;;;;;;;;;;;;;5110045;27;19927;-68
2022/03/22 12:25:02;;;;;;;;;;;;;;;;;;5109450;28;19999;-68
2022/03/22 12:27:28;;;;;;;;;;;;;;;;;;5103330;28;19908;-69
2022/03/22 12:29:54;;;;;;;;;;;;;;;;;;5092233;28;20007;-69
2022/03/22 12:32:21;;;;;;;;;;;;;;;;;;5088862;28;19944;-69
2022/03/22 12:34:47;;;;;;;;;;;;;;;;;;5090292;28;19947;-68
2022/03/22 12:39:00;;;;;;;;;;;;;;;;;;5095911;27;19919;-69
2022/03/22 12:41:26;;;;;;;;;;;;;;;;;;5106445;28;20287;-68
2022/03/22 12:43:52;;;;;;;;;;;;;;;;;;5089761;28;19913;-69
2022/03/22 12:46:18;;;;;;;;;;;;;;;;;;5090170;28;19908;-71
2022/03/22 12:50:18;;;;;;;;;;;;;;;;;;5110422;27;20406;-69
2022/03/22 12:54:35;;;;;;;;;;;;;;;;;;5110657;27;19923;-67
2022/03/22 12:57:03;;;;;;;;;;;;;;;;;;5110550;28;20380;-70
2022/03/22 12:59:30;;;;;;;;;;;;;;;;;;5107216;28;19968;-71
2022/03/22 13:01:57;;;;;;;;;;;;;;;;;;5109485;28;20283;-69
2022/03/22 13:04:23;;;;;;;;;;;;;;;;;;5106775;28;19908;-70
2022/03/22 13:06:50;;;;;;;;;;;;;;;;;;5109631;28;20383;-71
2022/03/22 13:12:01;;;;;;;;;;;;;;;;;;5109565;28;19931;-71
2022/03/22 13:17:12;;;;;;;;;;;;;;;;;;5101754;28;20326;-70
2022/03/22 13:19:37;;;;;;;;;;;;;;;;;;5088968;28;20003;-69
2022/03/22 13:22:04;;;;;;;;;;;;;;;;;;5121786;27;20011;-69
2022/03/22 13:24:32;;;;;;;;;;;;;;;;;;5089498;28;19908;-70
2022/03/22 13:26:58;;;;;;;;;;;;;;;;;;5105114;28;19930;-69
2022/03/22 13:29:24;;;;;;;;;;;;;;;;;;5089438;28;19920;-70
2022/03/22 13:31:50;;;;;;;;;;;;;;;;;;5089422;28;19912;-71
2022/03/22 13:34:16;;;;;;;;;;;;;;;;;;5089698;28;19916;-71
2022/03/22 13:38:32;;;;;;;;;;;;;;;;;;5110933;27;19916;-71
2022/03/22 13:41:03;;;;;;;;;;;;;;;;;;5110592;28;19916;-71
2022/03/22 13:43:29;;;;;;;;;;;;;;;;;;5110600;28;20293;-71
2022/03/22 13:45:56;;;;;;;;;;;;;;;;;;5110536;28;20007;-73
2022/03/22 13:48:22;;;;;;;;;;;;;;;;;;5110363;28;19908;-70
2022/03/22 13:50:48;;;;;;;;;;;;;;;;;;5109327;28;19991;-71
2022/03/22 13:53:14;;;;;;;;;;;;;;;;;;5110287;28;20383;-71
2022/03/22 13:55:40;;;;;;;;;;;;;;;;;;5110863;28;19998;-71
2022/03/22 13:58:06;;;;;;;;;;;;;;;;;;5110046;28;19916;-73
2022/03/22 14:00:33;;;;;;;;;;;;;;;;;;5109925;28;19912;-72
2022/03/22 14:02:59;;;;;;;;;;;;;;;;;;5109930;28;19912;-70
2022/03/22 14:05:25;;;;;;;;;;;;;;;;;;5107025;28;19963;-70
2022/03/22 14:09:36;;;;;;;;;;;;;;;;;;5090584;28;19913;-68
2022/03/22 14:12:03;;;;;;;;;;;;;;;;;;5090787;28;19916;-69
2022/03/22 14:14:29;;;;;;;;;;;;;;;;;;5090528;28;19908;-70
2022/03/22 14:16:55;;;;;;;;;;;;;;;;;;5090989;28;20445;-69
2022/03/22 14:19:21;;;;;;;;;;;;;;;;;;5089559;28;19912;-69
2022/03/22 14:21:47;;;;;;;;;;;;;;;;;;5090379;28;20003;-69
2022/03/22 14:24:13;;;;;;;;;;;;;;;;;;5090580;28;19921;-69
2022/03/22 14:26:39;;;;;;;;;;;;;;;;;;5089473;28;19908;-69
2022/03/22 14:29:05;;;;;;;;;;;;;;;;;;5089965;28;19962;-70
2022/03/22 14:31:31;;;;;;;;;;;;;;;;;;5090329;28;20230;-70
2022/03/22 14:33:57;;;;;;;;;;;;;;;;;;5090745;28;19908;-70
2022/03/22 14:36:23;;;;;;;15.52;9.85;;;;;;;;;;5089316;28;20424;-69
2022/03/22 14:38:49;;;;;;;16.33;9.20;;;;;;;;;;5090113;28;20051;-70
2022/03/22 14:41:25;;;;;;;12.93;8.27;;;;;;;;;;5090241;28;20082;-70
2022/03/22 14:43:56;;;;;;;15.68;8.48;;;;;;;;;;5089403;28;20111;-70
2022/03/22 14:46:23;;;;;;;13.70;7.78;;;;;;;;;;5090082;28;20532;-69
2022/03/22 14:48:49;;;;;;;12.02;8.05;;;;;;;;;;5088714;28;20041;-71
2022/03/22 14:51:18;;;;;;;16.63;10.20;;;;;;;;;;5089709;28;20488;-71
2022/03/22 14:54:03;;;;;;;22.65;10.90;;;;;;;;;;5090135;28;20065;-70
2022/03/22 14:59:16;;;;;;;7.93;4.68;;;;;;;;;;5090213;28;20091;-70
2022/03/22 15:01:42;;;;;;;10.27;4.25;;;;;;;;;;5090077;28;20467;-70
2022/03/22 15:04:09;;;;;;;7.50;3.00;;;;;;;;;;5088303;28;20028;-69
2022/03/22 15:06:37;;;;;;;5.72;2.80;;;;;;;;;;5089789;28;20099;-69
2022/03/22 15:09:05;;;;;;;6.05;2.97;;;;;;;;;;5105864;28;20142;-68
2022/03/22 15:11:33;;;;;;;5.05;2.65;;;;;;;;;;5109755;28;20020;-69
2022/03/22 15:13:59;;;;;;;4.95;2.40;;;;;;;;;;5110026;28;20047;-69
2022/03/22 15:16:26;;;;;;;4.85;2.95;;;;;;;;;;5109977;28;20388;-69
2022/03/22 15:18:52;;;;;;;6.05;3.00;;;;;;;;;;5107663;28;20031;-69
2022/03/22 15:21:19;;;;;;;6.90;2.95;;;;;;;;;;5096101;28;20440;-69
2022/03/22 15:25:18;;;;;;;9.63;3.20;;;;;;;;;;5111003;27;20397;-69
2022/03/22 15:27:45;;;;;;;5.57;2.60;;;;;;;;;;5111241;28;20016;-69
2022/03/22 15:30:11;;;;;;;8.77;4.03;;;;;;;;;;5111369;28;20524;-69
2022/03/22 15:32:37;;;;;;;5.47;3.25;;;;;;;;;;5109597;28;20434;-69
2022/03/22 15:35:59;;;;;;;8.77;3.97;;;;;;;;;;5111965;27;20521;-70
2022/03/22 15:38:25;;;;;;;9.13;3.90;;;;;;;;;;5110474;28;20361;-70
2022/03/22 15:40:52;;;;;;;8.32;3.85;;;;;;;;;;5107535;28;20415;-70
2022/03/22 15:43:18;;;;;;;11.38;4.35;;;;;;;;;;5107409;28;20023;-68
2022/03/22 15:46:56;;;;;;;11.13;6.03;;;;;;;;;;5110976;27;20392;-70
2022/03/22 15:49:22;;;;;;;;;;;;;;;;;;5111672;28;20062;-70
2022/03/22 15:52:39;;;;;;;;;;;;;;;;;;5091106;27;19912;-68
2022/03/22 15:55:05;;;;;;;;;;;;;;;;;;5091297;28;19935;-69
2022/03/22 16:00:00;;;;;;;;;;;;;;;;;;5111313;27;19912;-69
2022/03/22 16:04:33;;;;;;;;;;;;;;;;;;5091543;27;19916;-69
2022/03/22 16:11:25;;;;;;;;;;;;;;;;;;5091350;27;19922;-68
2022/03/22 16:13:51;;;;;;;;;;;;;;;;;;5090793;28;20361;-69
2022/03/22 16:16:17;;;;;;;;;;;;;;;;;;5089739;28;20327;-70
2022/03/22 16:18:47;;;;;;;;;;;;;;;;;;5089292;28;19915;-70
2022/03/22 16:21:13;;;;;;;;;;;;;;;;;;5090364;28;20498;-70
2022/03/22 16:23:39;;;;;;;;;;;;;;;;;;5089646;28;19960;-70
2022/03/22 16:26:08;;;;;;;;;;;;;;;;;;5090212;28;20326;-70
2022/03/22 16:30:30;;;;;;;;;;;;;;;;;;5091275;28;19912;-69
2022/03/22 16:43:23;;;;;;;;;;;;;;;;;;5090390;27;19938;-68
2022/03/22 16:45:49;;;;;;;;;;;;;;;;;;5089246;28;19912;-68
2022/03/22 16:49:52;;;;;;;;;;;;;;;;;;5109895;27;19918;-70
2022/03/22 16:53:28;;;;;;;;;;;;;;;;;;5089024;27;20316;-68
2022/03/22 16:57:02;;;;;;;;;;;;;;;;;;5088752;27;19913;-68
2022/03/22 16:59:29;;;;;;;;;;;;;;;;;;5089020;28;20217;-69
2022/03/22 17:03:10;;;;;;;;;;;;;;;;;;5109653;27;19916;-69
2022/03/22 17:05:36;;;;;;;;;;;;;;;;;;5111255;28;19912;-69
2022/03/22 17:10:00;;;;;;;;;;;;;;;;;;5111738;27;19923;-68
2022/03/22 17:12:26;;;;;;;;;;;;;;;;;;5111701;28;20436;-69
2022/03/22 17:14:52;;;;;;;;;;;;;;;;;;5112041;28;19908;-69
2022/03/22 17:17:19;;;;;;;;;;;;;;;;;;5111004;28;20425;-69
2022/03/22 17:19:47;;;;;;;;;;;;;;;;;;5110135;28;19908;-69
2022/03/22 17:22:15;;;;;;;;;;;;;;;;;;5110072;28;19908;-69
2022/03/22 17:24:41;;;;;;;;;;;;;;;;;;5110820;28;19908;-69
2022/03/22 17:27:09;;;;;;;;;;;;;;;;;;5110058;28;20348;-69
2022/03/22 17:29:47;;;;;;;;;;;;;;;;;;5091409;27;19916;-70
2022/03/22 17:32:13;;;;;;;;;;;;;;;;;;5090860;28;19919;-70
2022/03/22 17:34:41;;;;;;;;;;;;;;;;;;5091235;28;19909;-70
2022/03/22 17:38:27;;;;;;;;;;;;;;;;;;5152339;27;19912;-69
2022/03/22 17:44:58;;;;;;;;;;;;;;;;;;5091388;27;19938;-70
2022/03/22 17:47:24;;;;;;;;;;;;;;;;;;5089580;28;20355;-70
2022/03/22 17:49:50;;;;;;;;;;;;;;;;;;5091209;28;19987;-70
2022/03/22 17:52:59;;;;;;;;;;;;;;;;;;5111414;27;20376;-70
2022/03/22 17:58:25;;;;;;;;;;;;;;;;;;5111719;27;20295;-69
2022/03/22 18:00:52;;;;;;;;;;;;;;;;;;5111267;28;19912;-70
2022/03/22 18:04:20;;;;;;;;;;;;;;;;;;5091754;27;19912;-71
2022/03/22 18:06:46;;;;;;;;;;;;;;;;;;5089689;28;19919;-70
2022/03/22 18:09:12;;;;;;;;;;;;;;;;;;5091709;28;19908;-69
2022/03/22 18:11:51;;;;;;;;;;;;;;;;;;5089924;28;20430;-71
2022/03/22 18:14:17;;;;;;;;;;;;;;;;;;5090782;28;19909;-70
2022/03/22 18:16:44;;;;;;;;;;;;;;;;;;5091113;28;19962;-71
2022/03/22 18:19:10;;;;;;;;;;;;;;;;;;5090911;28;19975;-70
2022/03/22 18:21:36;;;;;;;;;;;;;;;;;;5090704;28;19908;-70
2022/03/22 18:24:02;;;;;;;;;;;;;;;;;;5090928;28;19916;-70
2022/03/22 18:26:28;;;;;;;;;;;;;;;;;;5090906;28;19953;-70
2022/03/22 18:28:54;;;;;;;;;;;;;;;;;;5090450;28;20361;-70
2022/03/22 18:31:21;;;;;;;;;;;;;;;;;;5089472;28;20245;-70
2022/03/22 18:33:47;;;;;;;;;;;;;;;;;;5090867;28;19909;-70
2022/03/22 18:36:13;;;;;;;;;;;;;;;;;;5090465;28;19912;-70
2022/03/22 18:38:39;;;;;;;;;;;;;;;;;;5090746;28;19935;-70
2022/03/22 18:41:05;;;;;;;;;;;;;;;;;;5090252;28;20360;-70
2022/03/22 18:43:31;;;;;;;;;;;;;;;;;;5090036;28;19970;-70
2022/03/22 18:45:57;;;;;;;;;;;;;;;;;;5090492;28;19915;-72
2022/03/22 18:48:23;;;;;;;;;;;;;;;;;;5090205;28;20281;-71
2022/03/22 18:50:50;;;;;;;;;;;;;;;;;;5090375;28;19912;-70
2022/03/22 18:53:16;;;;;;;;;;;;;;;;;;5090326;28;19908;-70